Time;durP1;ratioP1;P1;durP2;ratioP2;P2;SDS_P1;SDS_P2;PMS_P1;PMS_P2;Temp;Humidity;BMP_temperature;BMP_pressure;BME280_temperature;BME280_humidity;BME280_pressure;Samples;Min_cycle;Max_cycle;Signal;HPM_P1;HPM_P2
2022/04/12 00:01:32;;;;;;;9.47;4.77;;;7.20;83.40;;;;;;5030705;28;20494;-75
2022/04/12 00:04:01;;;;;;;7.67;4.47;;;7.20;82.90;;;;;;5031186;28;20455;-75
2022/04/12 00:06:28;;;;;;;7.93;3.73;;;6.80;84.40;;;;;;5030870;28;20478;-72
2022/04/12 00:08:57;;;;;;;10.27;4.20;;;6.70;85.70;;;;;;5031060;28;20451;-71
2022/04/12 00:11:24;;;;;;;7.50;4.67;;;6.80;85.60;;;;;;5030492;28;20490;-69
2022/04/12 00:13:51;;;;;;;6.67;4.17;;;6.80;85.90;;;;;;5030430;28;20494;-75
2022/04/12 00:16:19;;;;;;;7.03;4.70;;;6.80;86.90;;;;;;5030771;28;20465;-71
2022/04/12 00:19:03;;;;;;;8.63;3.90;;;6.80;87.00;;;;;;5030736;28;20516;-74
2022/04/12 00:21:34;;;;;;;7.70;3.90;;;6.90;86.60;;;;;;5030613;28;20538;-75
2022/04/12 00:24:03;;;;;;;6.67;4.20;;;7.00;85.90;;;;;;5030722;28;20561;-73
2022/04/12 00:26:30;;;;;;;6.77;3.60;;;6.90;86.80;;;;;;5030358;28;20451;-73
2022/04/12 00:28:57;;;;;;;8.23;3.90;;;7.00;87.20;;;;;;5030611;28;20451;-75
2022/04/12 00:31:24;;;;;;;7.40;4.10;;;7.00;87.60;;;;;;5030496;28;20475;-71
2022/04/12 00:33:51;;;;;;;10.03;3.90;;;7.00;87.80;;;;;;5030828;28;20459;-74
2022/04/12 00:36:18;;;;;;;8.03;3.97;;;7.00;88.10;;;;;;5030522;28;20459;-71
2022/04/12 00:38:45;;;;;;;7.43;3.90;;;7.10;88.60;;;;;;5030625;28;20454;-72
2022/04/12 00:41:15;;;;;;;7.77;4.30;;;7.20;87.70;;;;;;5030100;28;20479;-72
2022/04/12 00:43:44;;;;;;;6.57;3.87;;;7.20;87.80;;;;;;5030544;28;20550;-72
2022/04/12 00:46:11;;;;;;;6.30;3.90;;;7.10;89.10;;;;;;5030505;28;20458;-73
2022/04/12 00:48:38;;;;;;;9.63;3.90;;;7.30;89.00;;;;;;5030057;28;20479;-71
2022/04/12 00:51:05;;;;;;;7.20;4.10;;;7.30;88.80;;;;;;5030409;28;20470;-74
2022/04/12 00:53:32;;;;;;;6.20;3.73;;;7.30;88.60;;;;;;5030481;28;20462;-73
2022/04/12 00:56:00;;;;;;;9.93;3.47;;;7.30;89.90;;;;;;5029991;28;20454;-77
2022/04/12 00:58:29;;;;;;;10.00;4.47;;;7.30;90.60;;;;;;5030043;28;20537;-71
2022/04/12 01:00:56;;;;;;;6.83;4.23;;;7.40;90.40;;;;;;5029986;28;20893;-71
2022/04/12 01:03:23;;;;;;;8.00;3.93;;;7.50;90.50;;;;;;5030097;28;20481;-73
2022/04/12 01:05:51;;;;;;;6.77;3.70;;;7.50;91.00;;;;;;5030095;28;20451;-73
2022/04/12 01:08:18;;;;;;;7.63;4.50;;;7.60;91.00;;;;;;5029657;28;20458;-74
2022/04/12 01:10:46;;;;;;;7.93;3.80;;;7.50;91.10;;;;;;5029464;28;20581;-74
2022/04/12 01:13:13;;;;;;;7.27;4.50;;;7.50;90.80;;;;;;5029741;28;20774;-73
2022/04/12 01:15:43;;;;;;;6.43;4.23;;;7.50;91.50;;;;;;5029797;28;20482;-74
2022/04/12 01:18:10;;;;;;;7.63;3.93;;;7.30;91.00;;;;;;5029925;28;20529;-73
2022/04/12 01:20:38;;;;;;;8.73;4.60;;;7.40;90.90;;;;;;5029819;28;20471;-72
2022/04/12 01:23:10;;;;;;;8.10;4.07;;;7.30;90.70;;;;;;5029700;28;20466;-71
2022/04/12 01:25:39;;;;;;;8.47;4.10;;;7.20;91.10;;;;;;5029869;28;20540;-70
2022/04/12 01:28:07;;;;;;;7.17;3.80;;;7.20;91.60;;;;;;5029798;28;20534;-74
2022/04/12 01:30:35;;;;;;;7.03;4.13;;;7.30;91.60;;;;;;5029766;28;20820;-69
2022/04/12 01:33:02;;;;;;;7.40;4.10;;;7.30;92.20;;;;;;5029967;28;20459;-73
2022/04/12 01:35:29;;;;;;;6.20;3.70;;;7.30;91.90;;;;;;5029550;28;20773;-74
2022/04/12 01:37:56;;;;;;;11.33;4.77;;;7.40;92.10;;;;;;5029558;28;20501;-70
2022/04/12 01:40:23;;;;;;;6.37;4.27;;;7.50;91.70;;;;;;5029560;28;21002;-73
2022/04/12 01:42:52;;;;;;;6.33;3.90;;;7.60;91.60;;;;;;5029619;28;20926;-73
2022/04/12 01:45:20;;;;;;;6.37;4.00;;;7.60;91.70;;;;;;5029628;28;20578;-72
2022/04/12 01:47:47;;;;;;;6.43;4.00;;;7.70;91.80;;;;;;5029665;28;20478;-69
2022/04/12 01:50:14;;;;;;;7.40;4.10;;;7.90;91.00;;;;;;5029023;28;20540;-74
2022/04/12 01:52:41;;;;;;;8.10;4.37;;;8.00;90.90;;;;;;5029703;28;20454;-70
2022/04/12 01:55:09;;;;;;;8.50;3.70;;;8.00;91.00;;;;;;5029884;28;20513;-72
2022/04/12 01:57:36;;;;;;;8.73;4.43;;;7.90;91.30;;;;;;5029163;28;21021;-71
2022/04/12 02:00:08;;;;;;;7.80;4.77;;;7.90;91.30;;;;;;5029287;28;20489;-76
2022/04/12 02:02:35;;;;;;;9.40;4.60;;;7.90;91.60;;;;;;5029111;28;20542;-69
2022/04/12 02:05:02;;;;;;;7.43;4.43;;;7.90;91.80;;;;;;5029688;28;20481;-75
2022/04/12 02:07:29;;;;;;;7.80;4.33;;;7.90;91.60;;;;;;5029623;28;20478;-72
2022/04/12 02:09:56;;;;;;;10.10;5.30;;;7.90;92.00;;;;;;5029362;28;20463;-73
2022/04/12 02:12:23;;;;;;;11.73;5.90;;;7.80;92.20;;;;;;5029470;28;20455;-71
2022/04/12 02:14:50;;;;;;;10.93;6.90;;;7.70;92.10;;;;;;5029398;28;20863;-73
2022/04/12 02:17:19;;;;;;;11.67;7.43;;;7.60;92.90;;;;;;5029023;28;20489;-74
2022/04/12 02:19:46;;;;;;;11.87;7.60;;;7.60;92.70;;;;;;5029018;28;20538;-72
2022/04/12 02:22:13;;;;;;;13.30;7.03;;;7.60;92.50;;;;;;5029251;28;20451;-70
2022/04/12 02:24:40;;;;;;;9.77;6.27;;;7.60;92.60;;;;;;5029351;28;20455;-73
2022/04/12 02:27:07;;;;;;;10.40;6.87;;;7.70;92.30;;;;;;5029178;28;20526;-71
2022/04/12 02:29:34;;;;;;;9.50;6.13;;;7.60;92.40;;;;;;5028799;28;20970;-71
2022/04/12 02:32:01;;;;;;;11.50;6.50;;;7.60;92.40;;;;;;5028847;28;20954;-72
2022/04/12 02:34:30;;;;;;;9.27;5.87;;;7.50;92.70;;;;;;5028887;28;20451;-73
2022/04/12 02:36:57;;;;;;;13.90;7.50;;;7.40;93.00;;;;;;5029721;28;20922;-71
2022/04/12 02:39:24;;;;;;;8.87;6.10;;;7.40;93.40;;;;;;5032808;28;20446;-70
2022/04/12 02:41:51;;;;;;;9.23;6.43;;;7.40;93.70;;;;;;5032713;28;20610;-71
2022/04/12 02:44:19;;;;;;;13.17;6.97;;;7.30;93.90;;;;;;5032311;28;20461;-72
2022/04/12 02:46:46;;;;;;;15.53;8.00;;;7.20;94.40;;;;;;5032445;28;20458;-74
2022/04/12 02:49:13;;;;;;;17.93;6.90;;;7.20;94.90;;;;;;5032410;28;20485;-74
2022/04/12 02:51:42;;;;;;;12.37;7.20;;;7.10;95.60;;;;;;5032493;28;20485;-73
2022/04/12 02:54:09;;;;;;;10.40;7.00;;;7.10;95.60;;;;;;5032447;28;20927;-73
2022/04/12 02:56:37;;;;;;;9.07;6.80;;;7.10;96.00;;;;;;5032508;28;20936;-76
2022/04/12 02:59:04;;;;;;;12.90;7.70;;;7.00;96.20;;;;;;5032135;28;20686;-73
2022/04/12 03:01:32;;;;;;;14.20;8.03;;;7.00;96.20;;;;;;5032344;28;20474;-74
2022/04/12 03:03:59;;;;;;;12.13;7.30;;;7.00;96.20;;;;;;5032348;28;20947;-74
2022/04/12 03:06:26;;;;;;;14.60;7.17;;;7.00;96.30;;;;;;5032462;28;20466;-72
2022/04/12 03:08:54;;;;;;;15.53;7.83;;;6.80;97.30;;;;;;5032475;28;20866;-73
2022/04/12 03:11:21;;;;;;;11.17;7.17;;;6.80;97.10;;;;;;5032073;28;20495;-70
2022/04/12 03:13:48;;;;;;;14.43;7.17;;;6.90;97.50;;;;;;5031943;28;20950;-72
2022/04/12 03:16:15;;;;;;;9.77;7.50;;;6.90;97.80;;;;;;5031876;28;20462;-71
2022/04/12 03:18:42;;;;;;;11.70;7.90;;;6.70;98.50;;;;;;5031794;28;20517;-72
2022/04/12 03:21:09;;;;;;;8.47;6.80;;;6.70;98.60;;;;;;5031874;28;20475;-74
2022/04/12 03:23:36;;;;;;;12.17;8.07;;;6.70;99.30;;;;;;5031893;28;20895;-72
2022/04/12 03:26:05;;;;;;;13.57;8.83;;;6.60;99.80;;;;;;5031815;28;20540;-73
2022/04/12 03:28:33;;;;;;;13.90;7.17;;;6.70;99.50;;;;;;5031808;28;20447;-70
2022/04/12 03:31:00;;;;;;;10.77;6.87;;;6.70;99.00;;;;;;5031670;28;20510;-71
2022/04/12 03:33:27;;;;;;;14.47;7.83;;;6.60;99.90;;;;;;5031791;28;20450;-73
2022/04/12 03:35:55;;;;;;;11.13;7.20;;;6.60;99.80;;;;;;5031629;28;20447;-72
2022/04/12 03:38:22;;;;;;;11.97;8.60;;;6.60;99.80;;;;;;5031565;28;20884;-70
2022/04/12 03:40:49;;;;;;;12.20;6.77;;;6.50;99.90;;;;;;5031655;28;20474;-75
2022/04/12 03:43:17;;;;;;;11.13;7.47;;;6.50;99.90;;;;;;5031439;28;20454;-76
2022/04/12 03:45:44;;;;;;;12.47;7.30;;;6.50;99.90;;;;;;5031334;28;20980;-72
2022/04/12 03:48:11;;;;;;;9.07;6.40;;;6.50;99.90;;;;;;5030788;28;20482;-73
2022/04/12 03:50:39;;;;;;;14.87;7.40;;;6.50;99.90;;;;;;5030905;28;20471;-74
2022/04/12 03:53:06;;;;;;;11.20;7.20;;;6.50;99.90;;;;;;5031607;28;20447;-72
2022/04/12 03:55:35;;;;;;;14.20;7.70;;;6.40;99.90;;;;;;5031233;28;20458;-70
2022/04/12 03:58:04;;;;;;;16.40;7.77;;;6.40;99.90;;;;;;5031267;28;20498;-75
2022/04/12 04:00:34;;;;;;;12.23;8.33;;;6.50;99.90;;;;;;5030606;28;20529;-71
2022/04/12 04:03:01;;;;;;;11.50;7.10;;;6.40;99.90;;;;;;5031189;28;20458;-71
2022/04/12 04:05:28;;;;;;;11.13;8.00;;;6.30;99.90;;;;;;5030820;28;20866;-71
2022/04/12 04:07:55;;;;;;;11.77;7.40;;;6.20;99.90;;;;;;5031076;28;20462;-75
2022/04/12 04:10:22;;;;;;;11.77;7.53;;;6.30;99.90;;;;;;5030858;28;20490;-75
2022/04/12 04:12:51;;;;;;;17.50;8.00;;;6.30;99.90;;;;;;5030961;28;20451;-73
2022/04/12 04:15:18;;;;;;;9.47;7.73;;;6.30;99.90;;;;;;5031067;28;20455;-72
2022/04/12 04:17:47;;;;;;;10.67;7.40;;;6.30;99.90;;;;;;5030726;28;20462;-71
2022/04/12 04:20:16;;;;;;;10.60;8.43;;;6.30;99.90;;;;;;5030650;28;20976;-71
2022/04/12 04:22:43;;;;;;;10.80;6.70;;;6.40;99.90;;;;;;5030844;28;20457;-76
2022/04/12 04:25:11;;;;;;;12.60;7.63;;;6.40;99.90;;;;;;5030680;28;20463;-72
2022/04/12 04:27:39;;;;;;;16.70;8.90;;;6.40;99.90;;;;;;5030625;28;20451;-70
2022/04/12 04:30:09;;;;;;;12.47;7.30;;;6.50;99.90;;;;;;5030669;28;20879;-74
2022/04/12 04:32:36;;;;;;;12.50;6.87;;;6.60;99.90;;;;;;5030247;28;20483;-75
2022/04/12 04:35:06;;;;;;;12.63;8.00;;;6.80;99.90;;;;;;5036906;28;20767;-73
2022/04/12 04:37:33;;;;;;;12.67;7.87;;;6.90;99.90;;;;;;5036503;28;20555;-70
2022/04/12 04:40:00;;;;;;;11.53;8.00;;;7.00;99.90;;;;;;5050432;28;20485;-70
2022/04/12 04:42:27;;;;;;;12.00;7.60;;;7.00;99.90;;;;;;5050781;28;20442;-76
2022/04/12 04:44:55;;;;;;;10.50;7.33;;;7.10;99.90;;;;;;5050402;28;20476;-71
2022/04/12 04:47:22;;;;;;;8.97;5.97;;;7.20;99.90;;;;;;5050508;28;20456;-71
2022/04/12 04:49:49;;;;;;;11.60;6.53;;;7.20;99.90;;;;;;5049808;28;20516;-71
2022/04/12 04:52:18;;;;;;;12.83;7.20;;;7.10;99.90;;;;;;5047741;28;20461;-74
2022/04/12 04:54:45;;;;;;;13.03;7.80;;;7.20;99.90;;;;;;5049894;28;20463;-72
2022/04/12 04:57:12;;;;;;;12.87;8.40;;;7.30;99.90;;;;;;5050056;28;20453;-72
2022/04/12 04:59:39;;;;;;;11.80;7.73;;;7.30;99.90;;;;;;5049791;28;20486;-70
2022/04/12 05:02:06;;;;;;;13.13;7.53;;;7.30;99.90;;;;;;5049830;28;20497;-69
2022/04/12 05:04:33;;;;;;;12.13;8.20;;;7.50;99.50;;;;;;5049568;28;20457;-70
2022/04/12 05:07:00;;;;;;;15.13;8.73;;;7.60;99.30;;;;;;5049859;28;20462;-70
2022/04/12 05:09:29;;;;;;;11.87;8.47;;;7.60;99.40;;;;;;5049880;28;20942;-70
2022/04/12 05:11:56;;;;;;;15.40;9.60;;;7.60;99.80;;;;;;5049437;28;20489;-70
2022/04/12 05:14:23;;;;;;;14.40;10.07;;;7.60;99.90;;;;;;5049634;28;20457;-68
2022/04/12 05:16:50;;;;;;;15.80;9.63;;;7.70;99.90;;;;;;5049613;28;20457;-76
2022/04/12 05:19:17;;;;;;;17.37;10.10;;;7.80;99.90;;;;;;5049427;28;21080;-72
2022/04/12 05:21:44;;;;;;;14.40;10.43;;;7.80;99.90;;;;;;5049430;28;20476;-68
2022/04/12 05:24:11;;;;;;;16.90;10.93;;;7.90;99.90;;;;;;5049738;28;20454;-69
2022/04/12 05:26:40;;;;;;;17.30;9.27;;;8.10;99.80;;;;;;5049166;28;20831;-73
2022/04/12 05:29:07;;;;;;;19.47;10.40;;;8.20;99.20;;;;;;5049324;28;20454;-75
2022/04/12 05:31:34;;;;;;;16.50;10.60;;;8.40;98.40;;;;;;5049394;28;20477;-72
2022/04/12 05:34:02;;;;;;;14.73;9.77;;;8.40;98.40;;;;;;5048880;28;20812;-74
2022/04/12 05:36:29;;;;;;;14.20;9.13;;;8.50;98.10;;;;;;5029543;28;20925;-74
2022/04/12 05:38:57;;;;;;;15.47;9.47;;;8.50;97.90;;;;;;5028991;28;21041;-76
2022/04/12 05:41:24;;;;;;;13.00;9.50;;;8.60;97.50;;;;;;5028945;28;21096;-76
2022/04/12 05:43:52;;;;;;;17.90;9.70;;;8.70;96.60;;;;;;5029090;28;20462;-73
2022/04/12 05:46:19;;;;;;;17.27;10.10;;;8.90;96.10;;;;;;5029130;28;20453;-67
2022/04/12 05:48:46;;;;;;;15.13;9.33;;;9.00;95.40;;;;;;5028632;28;20475;-66
2022/04/12 05:51:13;;;;;;;14.70;9.40;;;9.00;95.40;;;;;;5029267;28;20979;-66
2022/04/12 05:53:40;;;;;;;15.40;9.33;;;9.00;95.00;;;;;;5029318;28;20458;-66
2022/04/12 05:56:07;;;;;;;14.30;9.77;;;9.00;94.10;;;;;;5028769;28;20939;-65
2022/04/12 05:58:35;;;;;;;13.60;9.73;;;9.00;94.00;;;;;;5029080;28;20497;-65
2022/04/12 06:01:04;;;;;;;15.23;9.90;;;9.10;93.20;;;;;;5029234;28;20474;-69
2022/04/12 06:03:31;;;;;;;20.10;11.57;;;9.20;93.00;;;;;;5029288;28;20538;-73
2022/04/12 06:05:58;;;;;;;25.53;11.33;;;9.20;93.00;;;;;;5029305;28;20450;-72
2022/04/12 06:08:25;;;;;;;16.43;9.97;;;9.20;93.80;;;;;;5029125;28;20451;-71
2022/04/12 06:10:53;;;;;;;15.80;9.83;;;9.30;93.20;;;;;;5028955;28;20478;-69
2022/04/12 06:13:20;;;;;;;13.40;10.53;;;9.50;92.50;;;;;;5031970;28;20501;-72
2022/04/12 06:15:47;;;;;;;23.90;10.80;;;9.60;91.90;;;;;;5032882;28;20822;-69
2022/04/12 06:18:16;;;;;;;20.77;12.93;;;9.50;92.70;;;;;;5032386;28;20826;-72
2022/04/12 06:20:43;;;;;;;18.17;12.87;;;9.50;93.10;;;;;;5032873;28;20477;-73
2022/04/12 06:23:10;;;;;;;14.10;11.50;;;9.40;93.20;;;;;;5032511;28;20932;-71
2022/04/12 06:25:37;;;;;;;16.87;10.90;;;9.60;93.60;;;;;;5032226;28;20944;-68
2022/04/12 06:28:07;;;;;;;13.80;11.87;;;9.50;93.30;;;;;;5032612;28;20454;-69
2022/04/12 06:30:34;;;;;;;18.43;12.13;;;9.70;92.80;;;;;;5031342;28;20482;-71
2022/04/12 06:33:01;;;;;;;15.60;11.83;;;10.00;91.60;;;;;;5032666;28;20577;-70
2022/04/12 06:35:30;;;;;;;17.23;12.27;;;10.20;91.40;;;;;;5032424;28;20888;-71
2022/04/12 06:37:57;;;;;;;15.57;11.50;;;10.10;90.90;;;;;;5032493;28;20857;-73
2022/04/12 06:40:25;;;;;;;18.57;11.83;;;10.10;91.40;;;;;;5032030;28;20494;-71
2022/04/12 06:42:53;;;;;;;16.93;12.50;;;10.30;90.70;;;;;;5032248;28;20910;-71
2022/04/12 06:45:20;;;;;;;16.50;10.80;;;10.60;90.60;;;;;;5032404;28;20471;-73
2022/04/12 06:47:54;;;;;;;16.40;9.37;;;10.80;89.50;;;;;;5032211;28;20454;-72
2022/04/12 06:50:21;;;;;;;15.60;11.03;;;10.50;90.70;;;;;;5032212;28;20498;-68
2022/04/12 06:52:49;;;;;;;18.77;10.77;;;10.50;90.40;;;;;;5032331;28;20455;-71
2022/04/12 06:55:16;;;;;;;12.57;9.13;;;10.50;91.20;;;;;;5032078;28;20458;-71
2022/04/12 06:57:44;;;;;;;13.87;8.90;;;10.60;90.90;;;;;;5031544;28;20482;-69
2022/04/12 07:00:12;;;;;;;16.77;9.33;;;10.90;90.30;;;;;;5030478;28;20930;-72
2022/04/12 07:02:39;;;;;;;15.00;9.13;;;11.00;90.10;;;;;;5027260;28;20734;-69
2022/04/12 07:05:08;;;;;;;14.13;8.80;;;11.30;89.60;;;;;;5029897;28;20462;-72
2022/04/12 07:07:36;;;;;;;14.47;9.60;;;11.40;88.30;;;;;;5031902;28;20465;-71
2022/04/12 07:10:06;;;;;;;14.63;8.30;;;11.50;88.50;;;;;;5031776;28;20470;-72
2022/04/12 07:12:33;;;;;;;14.13;9.00;;;11.60;87.80;;;;;;5032159;28;20454;-72
2022/04/12 07:15:00;;;;;;;15.03;9.60;;;11.80;86.50;;;;;;5031963;28;20451;-71
2022/04/12 07:17:27;;;;;;;14.10;9.53;;;11.90;85.80;;;;;;5031368;28;20459;-71
2022/04/12 07:19:55;;;;;;;13.13;8.47;;;12.20;87.10;;;;;;5031469;28;20490;-71
2022/04/12 07:22:22;;;;;;;14.00;9.73;;;12.40;85.60;;;;;;5031465;28;20483;-70
2022/04/12 07:24:49;;;;;;;15.07;9.53;;;12.60;83.40;;;;;;5031518;28;20507;-70
2022/04/12 07:27:18;;;;;;;11.40;9.30;;;12.70;82.30;;;;;;5031658;28;20455;-72
2022/04/12 07:29:45;;;;;;;12.47;8.57;;;12.90;81.20;;;;;;5031267;28;20451;-74
2022/04/12 07:32:12;;;;;;;11.60;9.10;;;13.00;81.10;;;;;;5031398;28;20455;-69
2022/04/12 07:34:40;;;;;;;13.30;9.07;;;13.00;79.70;;;;;;5031383;28;20458;-69
2022/04/12 07:37:08;;;;;;;13.10;8.67;;;13.20;79.50;;;;;;5031505;28;20454;-71
2022/04/12 07:39:35;;;;;;;12.80;9.70;;;13.40;77.90;;;;;;5031371;28;20967;-69
2022/04/12 07:42:03;;;;;;;13.97;9.60;;;13.10;76.50;;;;;;5030008;28;20883;-71
2022/04/12 07:44:33;;;;;;;10.37;7.80;;;13.20;75.90;;;;;;5031445;28;20490;-70
2022/04/12 07:47:00;;;;;;;15.10;8.60;;;13.40;75.10;;;;;;5043835;28;20446;-70
2022/04/12 07:49:28;;;;;;;8.40;6.60;;;13.60;74.50;;;;;;5049456;28;20478;-72
2022/04/12 07:51:55;;;;;;;9.27;6.30;;;13.70;72.60;;;;;;5051042;28;20477;-72
2022/04/12 07:54:22;;;;;;;8.33;3.93;;;13.70;65.20;;;;;;5050788;28;20450;-70
2022/04/12 07:56:49;;;;;;;5.83;3.43;;;13.50;59.30;;;;;;5050899;28;20533;-71
2022/04/12 07:59:16;;;;;;;5.70;4.07;;;12.80;57.80;;;;;;5050725;28;20485;-70
2022/04/12 08:01:45;;;;;;;5.17;3.20;;;12.10;57.80;;;;;;5049993;28;20478;-71
2022/04/12 08:04:12;;;;;;;5.17;3.10;;;12.00;59.40;;;;;;5050756;28;20453;-70
2022/04/12 08:06:39;;;;;;;6.50;3.07;;;12.20;60.50;;;;;;5050338;28;20469;-73
2022/04/12 08:09:06;;;;;;;6.90;2.77;;;12.60;59.60;;;;;;5050628;28;20837;-71
2022/04/12 08:11:33;;;;;;;4.37;2.47;;;12.90;58.70;;;;;;5050814;28;20477;-73
2022/04/12 08:14:02;;;;;;;6.77;3.57;;;13.20;58.20;;;;;;5050594;28;20762;-71
2022/04/12 08:16:29;;;;;;;7.27;3.67;;;13.50;57.50;;;;;;5049811;28;21011;-73
2022/04/12 08:18:58;;;;;;;5.37;2.87;;;13.80;56.20;;;;;;5050340;28;20957;-71
2022/04/12 08:21:36;;;;;;;10.00;3.77;;;14.20;54.40;;;;;;5050352;28;20969;-70
2022/04/12 08:24:03;;;;;;;8.10;3.30;;;13.70;52.80;;;;;;5049889;28;20449;-72
2022/04/12 08:26:31;;;;;;;5.90;3.23;;;13.60;54.70;;;;;;5050061;28;20458;-72
2022/04/12 08:28:58;;;;;;;5.20;2.93;;;13.90;53.90;;;;;;5050434;28;20453;-70
2022/04/12 08:31:25;;;;;;;9.60;3.30;;;14.10;53.90;;;;;;5050091;28;20465;-74
2022/04/12 08:33:52;;;;;;;6.67;3.10;;;14.00;51.90;;;;;;5050357;28;20805;-70
2022/04/12 08:36:22;;;;;;;6.13;3.33;;;13.80;52.30;;;;;;5049457;28;20996;-72
2022/04/12 08:38:51;;;;;;;6.13;2.50;;;13.90;53.00;;;;;;5049764;28;20461;-74
2022/04/12 08:41:20;;;;;;;6.60;3.50;;;14.00;52.40;;;;;;5049711;28;20490;-69
2022/04/12 08:43:47;;;;;;;5.10;3.00;;;13.80;52.10;;;;;;5050118;28;20446;-72
2022/04/12 08:46:14;;;;;;;6.00;2.47;;;13.80;53.40;;;;;;5049624;28;20453;-74
2022/04/12 08:48:41;;;;;;;6.90;3.07;;;14.10;53.50;;;;;;5049523;28;20492;-66
2022/04/12 08:51:09;;;;;;;6.70;3.60;;;14.30;51.90;;;;;;5049092;28;20438;-67
2022/04/12 08:53:38;;;;;;;8.23;3.00;;;14.40;51.60;;;;;;5049339;28;20706;-71
2022/04/12 08:56:07;;;;;;;5.33;2.70;;;14.50;51.70;;;;;;5049691;28;20457;-73
2022/04/12 08:58:34;;;;;;;5.43;3.13;;;14.30;50.30;;;;;;5049776;28;20461;-72
2022/04/12 09:01:02;;;;;;;4.77;2.77;;;14.60;51.00;;;;;;5049103;28;20485;-67
2022/04/12 09:03:29;;;;;;;5.70;2.90;;;14.80;49.10;;;;;;5049729;28;20551;-67
2022/04/12 09:05:56;;;;;;;6.73;3.70;;;14.80;47.20;;;;;;5049303;28;20454;-67
2022/04/12 09:08:28;;;;;;;7.10;3.43;;;14.90;46.70;;;;;;5049705;28;20519;-66
2022/04/12 09:11:02;;;;;;;7.03;3.07;;;15.00;47.90;;;;;;5049536;28;20485;-67
2022/04/12 09:13:30;;;;;;;7.40;3.60;;;15.10;48.10;;;;;;5049769;28;20446;-65
2022/04/12 09:15:58;;;;;;;4.83;2.70;;;15.10;48.60;;;;;;5049346;28;20477;-69
2022/04/12 09:18:35;;;;;;;8.40;2.60;;;14.80;47.30;;;;;;5049823;28;20457;-67
2022/04/12 09:21:13;;;;;;;8.43;5.07;;;14.90;48.60;;;;;;5049060;28;20954;-66
2022/04/12 09:23:43;;;;;;;11.03;6.57;;;15.10;49.10;;;;;;5049275;28;20866;-67
2022/04/12 09:26:16;;;;;;;6.77;3.20;;;15.40;50.10;;;;;;5049329;28;20485;-68
2022/04/12 09:28:44;;;;;;;8.30;3.87;;;15.70;49.50;;;;;;5048784;28;20541;-68
2022/04/12 09:31:12;;;;;;;8.80;3.37;;;15.70;48.00;;;;;;5048884;28;20470;-66
2022/04/12 09:33:40;;;;;;;5.03;3.17;;;15.50;47.10;;;;;;5048974;28;20482;-67
2022/04/12 09:36:08;;;;;;;4.70;2.47;;;15.50;48.10;;;;;;5049182;28;20528;-67
2022/04/12 09:38:36;;;;;;;5.40;3.20;;;15.60;49.30;;;;;;5048748;28;20453;-67
2022/04/12 09:41:19;;;;;;;8.80;3.37;;;15.60;48.30;;;;;;5048977;28;20489;-66
2022/04/12 09:43:57;;;;;;;5.53;2.50;;;15.80;48.60;;;;;;5048937;28;20481;-67
2022/04/12 09:46:26;;;;;;;5.10;2.33;;;16.00;47.90;;;;;;5048688;28;20446;-66
2022/04/12 09:48:53;;;;;;;8.37;3.50;;;16.00;46.70;;;;;;5052926;28;20961;-68
2022/04/12 09:51:22;;;;;;;5.37;2.83;;;16.10;47.90;;;;;;5052938;28;20449;-69
2022/04/12 09:53:49;;;;;;;4.90;2.90;;;16.30;48.00;;;;;;5053306;28;20484;-68
2022/04/12 09:56:23;;;;;;;7.47;3.40;;;16.40;48.80;;;;;;5053004;28;20454;-67
2022/04/12 09:58:54;;;;;;;6.77;2.53;;;16.90;47.70;;;;;;5053029;28;20783;-66
2022/04/12 10:01:23;;;;;;;6.10;2.63;;;16.80;47.30;;;;;;5053177;28;20490;-68
2022/04/12 10:03:52;;;;;;;5.43;2.00;;;16.80;47.10;;;;;;5053142;28;20461;-68
2022/04/12 10:06:20;;;;;;;4.80;1.90;;;16.30;45.50;;;;;;5052520;28;20942;-70
2022/04/12 10:08:58;;;;;;;5.20;2.70;;;15.90;47.00;;;;;;5052793;28;20516;-68
2022/04/12 10:11:28;;;;;;;4.77;2.00;;;16.20;47.60;;;;;;5052626;28;20461;-69
2022/04/12 10:13:56;;;;;;;4.67;1.87;;;16.40;45.80;;;;;;5052932;28;20445;-69
2022/04/12 10:16:24;;;;;;;6.00;2.37;;;16.60;46.30;;;;;;5052407;28;20456;-69
2022/04/12 10:18:52;;;;;;;4.50;2.13;;;16.90;46.80;;;;;;5052850;28;20454;-70
2022/04/12 10:21:19;;;;;;;5.37;2.50;;;17.20;46.30;;;;;;5052368;28;20493;-70
2022/04/12 10:23:52;;;;;;;6.60;2.90;;;17.40;46.80;;;;;;5052784;28;20457;-70
2022/04/12 10:26:22;;;;;;;4.60;2.27;;;17.80;47.00;;;;;;5052481;28;20585;-70
2022/04/12 10:28:53;;;;;;;5.00;2.30;;;17.80;46.10;;;;;;5052363;28;20879;-71
2022/04/12 10:31:26;;;;;;;4.90;2.43;;;17.80;45.70;;;;;;5052201;28;20961;-72
2022/04/12 10:34:03;;;;;;;5.00;2.30;;;18.10;46.20;;;;;;5052196;28;20515;-71
2022/04/12 10:36:59;;;;;;;3.97;1.90;;;18.30;46.50;;;;;;5052072;28;20811;-70
2022/04/12 10:39:32;;;;;;;5.00;2.00;;;18.60;45.20;;;;;;5052276;28;20785;-71
2022/04/12 10:42:03;;;;;;;5.20;2.13;;;18.70;44.30;;;;;;5052224;28;20465;-71
2022/04/12 10:44:39;;;;;;;4.13;1.67;;;18.70;44.10;;;;;;5051998;28;20950;-79
2022/04/12 10:47:06;;;;;;;6.10;2.63;;;18.70;43.70;;;;;;5052193;28;20476;-71
2022/04/12 10:49:37;;;;;;;5.00;2.33;;;18.80;43.80;;;;;;5051563;28;20484;-71
2022/04/12 10:52:09;;;;;;;4.70;2.30;;;18.90;44.40;;;;;;5051790;28;20560;-69
2022/04/12 10:54:37;;;;;;;5.50;2.30;;;19.00;44.40;;;;;;5052056;28;20559;-69
2022/04/12 10:57:24;;;;;;;5.43;2.10;;;19.10;44.40;;;;;;5052202;28;20453;-68
2022/04/12 10:59:57;;;;;;;5.43;2.30;;;19.10;43.50;;;;;;5051279;28;20697;-69
2022/04/12 11:02:30;;;;;;;5.57;2.77;;;19.10;43.60;;;;;;5049057;28;20450;-70
2022/04/12 11:04:58;;;;;;;5.70;2.03;;;19.10;44.30;;;;;;5048675;28;20481;-69
2022/04/12 11:07:33;;;;;;;5.60;2.40;;;19.30;43.90;;;;;;5050987;28;20458;-69
2022/04/12 11:10:09;;;;;;;4.50;1.73;;;19.40;42.20;;;;;;5051645;28;20457;-69
2022/04/12 11:12:42;;;;;;;5.00;2.30;;;19.60;42.90;;;;;;5051621;28;20456;-70
2022/04/12 11:15:26;;;;;;;6.20;2.50;;;19.60;42.00;;;;;;5051409;28;20970;-70
2022/04/12 11:18:06;;;;;;;4.83;1.83;;;19.20;41.90;;;;;;5051569;28;21009;-70
2022/04/12 11:20:34;;;;;;;4.60;2.30;;;19.20;42.90;;;;;;5051491;28;20493;-72
2022/04/12 11:23:08;;;;;;;4.90;1.90;;;19.70;43.40;;;;;;5051645;28;20794;-76
2022/04/12 11:25:37;;;;;;;5.67;2.40;;;19.80;41.30;;;;;;5051096;28;20551;-71
2022/04/12 11:28:05;;;;;;;5.20;1.93;;;19.70;41.50;;;;;;5051444;28;20489;-73
2022/04/12 11:30:33;;;;;;;4.20;1.70;;;19.50;41.30;;;;;;5051348;28;20481;-72
2022/04/12 11:33:00;;;;;;;5.20;1.80;;;19.50;41.50;;;;;;5051712;28;20489;-58
2022/04/12 11:35:27;;;;;;;6.50;2.00;;;19.80;41.00;;;;;;5051495;28;20447;-72
2022/04/12 11:37:55;;;;;;;4.20;1.90;;;20.00;39.20;;;;;;5051010;28;20458;-74
2022/04/12 11:40:25;;;;;;;4.50;1.83;;;19.80;39.60;;;;;;5052142;28;20490;-75
2022/04/12 11:42:55;;;;;;;5.73;1.80;;;19.70;38.60;;;;;;5051302;28;20462;-73
2022/04/12 11:45:33;;;;;;;4.40;1.63;;;20.00;39.80;;;;;;5051464;28;20511;-74
2022/04/12 11:48:00;;;;;;;5.60;2.13;;;20.30;38.80;;;;;;5051463;28;20449;-70
2022/04/12 11:50:28;;;;;;;4.80;1.50;;;20.40;37.90;;;;;;5050998;28;20470;-73
2022/04/12 11:52:58;;;;;;;3.80;1.47;;;20.20;36.20;;;;;;5051037;28;21022;-70
2022/04/12 11:55:25;;;;;;;4.80;2.10;;;19.70;37.00;;;;;;5051111;28;20460;-70
2022/04/12 11:57:52;;;;;;;5.40;2.03;;;19.80;37.10;;;;;;5051135;28;20469;-74
2022/04/12 12:00:22;;;;;;;6.13;2.13;;;19.60;38.10;;;;;;5051058;28;20494;-74
2022/04/12 12:02:53;;;;;;;8.57;2.40;;;20.00;38.20;;;;;;5051139;28;20482;-70
2022/04/12 12:05:21;;;;;;;4.60;1.50;;;20.50;36.90;;;;;;5050924;28;20896;-72
2022/04/12 12:07:48;;;;;;;4.60;1.60;;;20.60;36.10;;;;;;5050762;28;20540;-74
2022/04/12 12:10:16;;;;;;;6.57;1.80;;;20.70;36.50;;;;;;5049663;28;20808;-74
2022/04/12 12:12:45;;;;;;;3.70;1.50;;;21.10;35.90;;;;;;5050802;28;20461;-72
2022/04/12 12:15:15;;;;;;;4.13;1.60;;;21.20;35.00;;;;;;5050325;28;20449;-71
2022/04/12 12:17:44;;;;;;;5.40;1.67;;;20.80;34.80;;;;;;5050543;28;20449;-73
2022/04/12 12:20:13;;;;;;;5.10;1.77;;;20.80;35.60;;;;;;5050473;28;20509;-75
2022/04/12 12:22:43;;;;;;;5.00;1.30;;;20.90;35.40;;;;;;5050548;28;20842;-75
2022/04/12 12:25:18;;;;;;;5.53;1.80;;;21.00;35.50;;;;;;5050711;28;20461;-75
2022/04/12 12:27:50;;;;;;;7.20;1.70;;;21.10;35.80;;;;;;5050450;28;20942;-73
2022/04/12 12:30:20;;;;;;;6.10;2.43;;;21.50;35.90;;;;;;5050319;28;20465;-72
2022/04/12 12:32:50;;;;;;;3.63;1.27;;;21.50;34.20;;;;;;5050396;28;20546;-71
2022/04/12 12:35:20;;;;;;;8.47;2.97;;;21.40;35.20;;;;;;5050069;28;20942;-72
2022/04/12 12:37:47;;;;;;;4.57;2.33;;;21.50;33.90;;;;;;5050223;28;20446;-73
2022/04/12 12:40:20;;;;;;;6.47;3.83;;;21.50;33.70;;;;;;5050143;28;20824;-72
2022/04/12 12:42:47;;;;;;;4.67;1.93;;;21.70;35.00;;;;;;5050043;28;20454;-73
2022/04/12 12:45:17;;;;;;;5.83;2.20;;;22.00;33.80;;;;;;5050220;28;20454;-71
2022/04/12 12:47:47;;;;;;;4.10;1.40;;;21.90;33.90;;;;;;5048789;28;20456;-67
2022/04/12 12:50:16;;;;;;;4.27;1.73;;;21.80;33.70;;;;;;5049840;28;20573;-67
2022/04/12 12:52:45;;;;;;;5.50;2.40;;;21.80;33.70;;;;;;5050060;28;20449;-67
2022/04/12 12:55:15;;;;;;;4.23;1.40;;;21.90;33.50;;;;;;5049684;28;20454;-68